createdAt,value
2023-04-16T00:00:14.714Z,18.42
2023-04-16T00:02:45.307Z,17.80
2023-04-16T00:05:13.600Z,18.52
2023-04-16T00:08:05.610Z,18.58
2023-04-16T00:10:34.847Z,18.48
2023-04-16T00:13:01.640Z,19.48
2023-04-16T00:15:28.346Z,19.50
2023-04-16T00:17:55.252Z,18.98
2023-04-16T00:20:24.484Z,19.58
2023-04-16T00:22:51.516Z,21.70
2023-04-16T00:25:21.761Z,19.45
2023-04-16T00:27:48.533Z,18.95
2023-04-16T00:30:15.797Z,19.38
2023-04-16T00:32:48.477Z,22.38
2023-04-16T00:35:15.414Z,22.33
2023-04-16T00:37:43.967Z,20.90
2023-04-16T00:40:11.504Z,21.25
2023-04-16T00:42:38.309Z,21.42
2023-04-16T00:45:06.673Z,20.35
2023-04-16T00:47:34.081Z,22.10
2023-04-16T00:50:02.954Z,20.15
2023-04-16T00:52:39.026Z,21.52
2023-04-16T00:55:08.137Z,22.17
2023-04-16T00:57:37.270Z,20.60
2023-04-16T01:00:13.745Z,20.63
2023-04-16T01:02:43.922Z,20.33
2023-04-16T01:05:11.435Z,21.88
2023-04-16T01:07:38.212Z,19.67
2023-04-16T01:10:05.508Z,20.25
2023-04-16T01:12:32.559Z,19.17
2023-04-16T01:14:59.418Z,18.27
2023-04-16T01:17:26.620Z,17.95
2023-04-16T01:19:55.675Z,20.25
2023-04-16T01:22:22.734Z,18.52
2023-04-16T01:24:52.418Z,20.80
2023-04-16T01:27:23.576Z,19.38
2023-04-16T01:29:53.706Z,19.50
2023-04-16T01:32:27.690Z,19.08
2023-04-16T01:34:56.493Z,20.80
2023-04-16T01:37:26.339Z,21.17
2023-04-16T01:40:00.482Z,19.30
2023-04-16T01:42:34.794Z,20.48
2023-04-16T01:47:33.332Z,20.45
2023-04-16T01:50:01.060Z,20.45
2023-04-16T01:52:27.944Z,20.42
2023-04-16T01:54:54.697Z,18.63
2023-04-16T01:57:27.566Z,19.13
2023-04-16T01:59:54.331Z,20.65
2023-04-16T02:02:28.221Z,20.10
2023-04-16T02:04:57.400Z,19.38
2023-04-16T02:07:27.639Z,18.42
2023-04-16T02:09:54.625Z,19.98
2023-04-16T02:12:27.441Z,18.83
2023-04-16T02:14:54.336Z,19.27
2023-04-16T02:17:24.201Z,18.27
2023-04-16T02:19:51.204Z,19.33
2023-04-16T02:22:18.080Z,20.10
2023-04-16T02:24:44.898Z,19.98
2023-04-16T02:27:11.551Z,18.73
2023-04-16T02:29:47.558Z,20.08
2023-04-16T02:32:17.185Z,20.38
2023-04-16T02:34:45.388Z,21.75
2023-04-16T02:37:14.384Z,21.73
2023-04-16T02:39:45.150Z,20.58
2023-04-16T02:42:33.091Z,19.27
2023-04-16T02:44:59.858Z,19.38
2023-04-16T02:47:26.543Z,19.00
2023-04-16T02:49:59.171Z,18.88
2023-04-16T02:52:27.879Z,19.10
2023-04-16T02:55:02.409Z,19.40
2023-04-16T02:57:29.077Z,20.73
2023-04-16T02:59:55.932Z,18.83
2023-04-16T03:02:28.399Z,20.90
2023-04-16T03:04:55.545Z,19.83
2023-04-16T03:10:03.258Z,18.70
2023-04-16T03:12:52.573Z,20.10
2023-04-16T03:15:37.258Z,20.67
2023-04-16T03:18:12.889Z,19.95
2023-04-16T03:20:51.879Z,19.52
2023-04-16T03:23:18.667Z,19.02
2023-04-16T03:25:47.898Z,19.42
2023-04-16T03:28:35.426Z,18.73
2023-04-16T03:31:02.247Z,19.20
2023-04-16T03:33:32.457Z,17.60
2023-04-16T03:36:15.221Z,17.63
2023-04-16T03:38:53.544Z,17.45
2023-04-16T03:41:46.459Z,18.45
2023-04-16T03:44:13.510Z,18.70
2023-04-16T03:46:43.675Z,18.02
2023-04-16T03:49:22.450Z,18.67
2023-04-16T03:52:03.073Z,17.90
2023-04-16T03:54:36.081Z,17.42
2023-04-16T03:57:08.712Z,19.45
2023-04-16T03:59:49.492Z,18.70
2023-04-16T04:02:19.330Z,19.75
2023-04-16T04:04:57.319Z,18.38
2023-04-16T04:10:27.678Z,17.33
2023-04-16T04:13:08.408Z,18.67
2023-04-16T04:16:04.448Z,18.83
2023-04-16T04:18:34.346Z,16.60
2023-04-16T04:21:11.650Z,18.05
2023-04-16T04:23:44.497Z,18.92
2023-04-16T04:26:14.508Z,16.70
2023-04-16T04:29:04.834Z,18.90
2023-04-16T04:31:34.493Z,17.80
2023-04-16T04:34:03.170Z,18.23
2023-04-16T04:37:05.249Z,19.35
2023-04-16T04:39:44.751Z,17.55
2023-04-16T04:42:11.542Z,18.55
2023-04-16T04:45:01.469Z,20.45
2023-04-16T04:47:30.857Z,19.60
2023-04-16T04:50:05.067Z,18.63
2023-04-16T04:52:57.645Z,19.55
2023-04-16T04:55:22.947Z,16.98
2023-04-16T04:57:51.177Z,20.05
2023-04-16T05:00:45.373Z,18.77
2023-04-16T05:03:24.644Z,19.27
2023-04-16T05:05:53.584Z,17.90
2023-04-16T05:08:20.395Z,18.60
2023-04-16T05:10:49.400Z,17.45
2023-04-16T05:13:18.757Z,17.90
2023-04-16T05:15:54.745Z,18.13
2023-04-16T05:18:21.481Z,19.02
2023-04-16T05:20:49.706Z,17.73
2023-04-16T05:23:23.469Z,18.48
2023-04-16T05:26:10.611Z,17.13
2023-04-16T05:28:37.418Z,16.00
2023-04-16T05:31:17.392Z,19.02
2023-04-16T05:33:51.793Z,16.30
2023-04-16T05:38:53.656Z,16.33
2023-04-16T05:41:20.422Z,15.95
2023-04-16T05:43:57.826Z,19.45
2023-04-16T05:46:24.668Z,16.13
2023-04-16T05:49:04.260Z,17.73
2023-04-16T05:51:51.431Z,16.13
2023-04-16T05:54:18.486Z,16.70
2023-04-16T05:56:51.454Z,16.23
2023-04-16T06:02:01.588Z,17.33
2023-04-16T06:04:31.609Z,16.45
2023-04-16T06:18:11.428Z,16.10
2023-04-16T06:34:10.317Z,15.57
2023-04-16T06:44:44.954Z,15.75
2023-04-16T06:59:01.512Z,16.00
2023-04-16T07:12:59.475Z,15.63
2023-04-16T07:48:42.307Z,16.45
2023-04-16T08:21:58.199Z,15.35
2023-04-16T08:24:46.939Z,15.13
2023-04-16T09:25:01.196Z,14.73
2023-04-16T10:16:18.934Z,16.85
2023-04-16T10:18:48.994Z,15.88
2023-04-16T10:21:16.623Z,18.08
2023-04-16T10:23:53.965Z,17.73
2023-04-16T10:26:28.988Z,18.95
2023-04-16T10:29:17.325Z,17.17
2023-04-16T10:32:01.621Z,18.38
2023-04-16T10:34:31.348Z,18.27
2023-04-16T10:37:23.938Z,17.98
2023-04-16T10:39:55.279Z,20.70
2023-04-16T10:42:22.384Z,21.02
2023-04-16T10:44:52.186Z,21.05
2023-04-16T10:48:03.129Z,22.73
2023-04-16T10:50:52.212Z,23.67
2023-04-16T10:53:31.545Z,23.05
2023-04-16T10:56:08.018Z,22.55
2023-04-16T10:58:49.879Z,21.95
2023-04-16T11:01:17.050Z,20.80
2023-04-16T11:03:49.119Z,21.90
2023-04-16T11:06:28.300Z,19.55
2023-04-16T11:08:55.679Z,21.23
2023-04-16T11:11:23.702Z,20.13
2023-04-16T11:14:03.796Z,20.00
2023-04-16T11:16:45.728Z,19.02
2023-04-16T11:19:33.569Z,18.88
2023-04-16T11:22:02.787Z,15.93
2023-04-16T11:24:42.610Z,16.92
2023-04-16T11:27:09.564Z,17.67
2023-04-16T11:29:40.660Z,15.88
2023-04-16T11:32:07.982Z,15.32
2023-04-16T11:34:35.185Z,14.27
2023-04-16T11:37:05.037Z,14.10
2023-04-16T11:39:44.401Z,16.27
2023-04-16T11:42:19.624Z,14.73
2023-04-16T11:45:06.851Z,15.57
2023-04-16T11:48:00.430Z,15.43
2023-04-16T11:50:29.279Z,16.05
2023-04-16T11:53:16.205Z,15.27
2023-04-16T11:56:07.238Z,15.07
2023-04-16T11:58:34.276Z,17.13
2023-04-16T12:01:08.966Z,15.65
2023-04-16T12:04:05.653Z,15.68
2023-04-16T12:06:33.213Z,15.95
2023-04-16T12:09:21.533Z,17.50
2023-04-16T12:11:51.396Z,16.67
2023-04-16T12:14:18.542Z,17.38
2023-04-16T12:16:50.345Z,16.73
2023-04-16T12:19:21.879Z,15.93
2023-04-16T12:21:51.096Z,15.40
2023-04-16T12:24:28.122Z,15.40
2023-04-16T12:27:07.153Z,15.52
2023-04-16T12:33:19.130Z,15.30
2023-04-16T12:35:49.401Z,15.00
2023-04-16T12:38:23.604Z,14.98
2023-04-16T12:40:51.993Z,15.80
2023-04-16T12:43:23.826Z,15.30
2023-04-16T12:46:34.924Z,14.63
2023-04-16T12:56:12.700Z,14.30
2023-04-16T13:02:34.276Z,14.73
2023-04-16T13:05:01.683Z,13.60
2023-04-16T13:07:29.154Z,13.93
2023-04-16T13:10:09.975Z,13.93
2023-04-16T13:12:49.431Z,13.23
2023-04-16T13:15:19.739Z,14.05
2023-04-16T13:17:49.635Z,14.10
2023-04-16T13:20:22.458Z,14.50
2023-04-16T13:26:18.818Z,12.93
2023-04-16T13:43:55.454Z,13.38
2023-04-16T13:47:04.204Z,13.88
2023-04-16T13:51:22.550Z,13.30
2023-04-16T13:55:23.044Z,11.95
2023-04-16T14:04:05.276Z,11.80
2023-04-16T14:10:30.161Z,12.27
2023-04-16T14:13:10.974Z,12.60
2023-04-16T14:17:12.247Z,12.27
2023-04-16T14:21:14.628Z,12.57
2023-04-16T14:25:51.478Z,12.50
2023-04-16T15:52:53.718Z,12.88
2023-04-16T16:03:56.522Z,13.65
2023-04-16T16:09:05.575Z,13.93
2023-04-16T17:50:11.234Z,13.80
2023-04-16T18:24:00.513Z,18.77
2023-04-16T18:54:44.105Z,22.98
2023-04-16T19:03:12.155Z,21.20
2023-04-16T19:53:38.403Z,25.25
2023-04-16T20:07:02.096Z,25.02
2023-04-16T20:09:28.906Z,25.75
2023-04-16T20:12:01.457Z,25.83
2023-04-16T20:14:28.315Z,25.73
2023-04-16T20:16:58.341Z,24.77
2023-04-16T20:19:31.620Z,26.05
2023-04-16T20:22:04.406Z,25.73
2023-04-16T20:24:32.545Z,25.45
2023-04-16T20:26:59.785Z,27.25
2023-04-16T20:29:38.516Z,24.40
2023-04-16T20:32:25.946Z,26.80
2023-04-16T20:34:58.422Z,29.10
2023-04-16T20:37:27.365Z,27.77
2023-04-16T20:40:01.647Z,32.60
2023-04-16T20:45:06.190Z,36.80
2023-04-16T20:47:38.620Z,36.58
2023-04-16T20:50:15.858Z,37.80
2023-04-16T20:53:14.376Z,39.13
2023-04-16T20:56:09.150Z,38.40
2023-04-16T20:58:36.278Z,37.42
2023-04-16T21:01:07.612Z,35.08
2023-04-16T21:03:50.130Z,35.75
2023-04-16T21:06:18.005Z,33.22
2023-04-16T21:08:51.155Z,33.88
2023-04-16T21:11:25.319Z,31.73
2023-04-16T21:14:01.542Z,28.23
2023-04-16T21:16:36.608Z,28.20
2023-04-16T21:19:03.939Z,26.67
2023-04-16T21:21:45.742Z,27.63
2023-04-16T21:24:17.473Z,27.30
2023-04-16T21:26:46.492Z,28.40
2023-04-16T21:29:13.516Z,29.40
2023-04-16T21:31:47.614Z,30.27
2023-04-16T21:34:18.267Z,28.95
2023-04-16T21:36:50.665Z,28.15
2023-04-16T21:39:19.725Z,27.33
2023-04-16T21:41:49.934Z,28.27
2023-04-16T21:44:16.975Z,28.17
2023-04-16T21:46:44.126Z,29.52
2023-04-16T21:49:11.483Z,31.00
2023-04-16T21:51:40.413Z,28.50
2023-04-16T21:54:09.739Z,28.35
2023-04-16T21:56:52.509Z,29.13
2023-04-16T21:59:19.541Z,28.90
2023-04-16T22:01:46.513Z,27.95
2023-04-16T22:04:25.913Z,29.10
2023-04-16T22:06:56.133Z,30.60
2023-04-16T22:09:24.832Z,29.67
2023-04-16T22:11:52.420Z,30.27
2023-04-16T22:14:19.177Z,30.33
2023-04-16T22:16:53.746Z,29.65
2023-04-16T22:19:23.545Z,31.17
2023-04-16T22:21:50.446Z,30.88
2023-04-16T22:24:19.914Z,30.95
2023-04-16T22:26:46.793Z,31.17
2023-04-16T22:29:16.363Z,32.72
2023-04-16T22:31:57.632Z,29.52
2023-04-16T22:34:24.435Z,30.38
2023-04-16T22:36:51.459Z,31.38
2023-04-16T22:39:19.642Z,29.30
2023-04-16T22:41:46.553Z,30.70
2023-04-16T22:44:20.368Z,32.30
2023-04-16T22:46:52.162Z,30.83
2023-04-16T22:49:19.047Z,31.92
2023-04-16T22:51:46.460Z,33.58
2023-04-16T22:54:16.378Z,33.17
2023-04-16T22:56:52.383Z,34.08
2023-04-16T22:59:19.193Z,36.92
2023-04-16T23:01:46.649Z,34.90
2023-04-16T23:04:25.922Z,36.60
2023-04-16T23:06:53.991Z,35.13
2023-04-16T23:09:22.472Z,36.67
2023-04-16T23:11:49.234Z,36.00
2023-04-16T23:14:16.978Z,34.65
2023-04-16T23:16:46.940Z,37.97
2023-04-16T23:19:15.724Z,36.67
2023-04-16T23:21:47.170Z,37.30
2023-04-16T23:24:17.191Z,37.72
2023-04-16T23:26:46.389Z,38.53
2023-04-16T23:29:13.394Z,35.72
2023-04-16T23:31:48.342Z,36.75
2023-04-16T23:34:18.705Z,37.03
2023-04-16T23:36:46.044Z,38.33
2023-04-16T23:39:15.440Z,39.50
2023-04-16T23:41:44.914Z,40.13
2023-04-16T23:44:11.916Z,40.85
2023-04-16T23:46:43.330Z,41.30
2023-04-16T23:49:12.897Z,40.55
2023-04-16T23:51:54.947Z,40.65
2023-04-16T23:54:24.496Z,40.50
2023-04-16T23:56:55.092Z,42.75
2023-04-16T23:59:27.672Z,42.20
